sensor_id;sensor_type;location;lat;lon;timestamp;pressure;altitude;pressure_sealevel;temperature;humidity
2178;BME280;1095;50.992;6.798;2023-04-28T00:00:33;100530.84;;;11.87;73.65
2178;BME280;1095;50.992;6.798;2023-04-28T00:03:01;100533.31;;;11.89;73.91
2178;BME280;1095;50.992;6.798;2023-04-28T00:05:27;100521.06;;;11.81;74.11
2178;BME280;1095;50.992;6.798;2023-04-28T00:07:56;100517.91;;;11.86;74.33
2178;BME280;1095;50.992;6.798;2023-04-28T00:10:23;100517.09;;;11.93;74.82
2178;BME280;1095;50.992;6.798;2023-04-28T00:12:49;100520.69;;;11.84;74.96
2178;BME280;1095;50.992;6.798;2023-04-28T00:15:16;100525.50;;;11.81;75.57
2178;BME280;1095;50.992;6.798;2023-04-28T00:17:42;100522.16;;;11.87;76.30
2178;BME280;1095;50.992;6.798;2023-04-28T00:20:10;100503.88;;;11.79;75.66
2178;BME280;1095;50.992;6.798;2023-04-28T00:22:37;100498.44;;;11.72;76.22
2178;BME280;1095;50.992;6.798;2023-04-28T00:25:06;100489.09;;;11.70;76.02
2178;BME280;1095;50.992;6.798;2023-04-28T00:27:34;100482.56;;;11.66;76.13
2178;BME280;1095;50.992;6.798;2023-04-28T00:30:01;100475.00;;;11.71;75.86
2178;BME280;1095;50.992;6.798;2023-04-28T00:32:28;100467.78;;;11.73;75.54
2178;BME280;1095;50.992;6.798;2023-04-28T00:34:56;100467.81;;;11.64;75.90
2178;BME280;1095;50.992;6.798;2023-04-28T00:37:22;100474.19;;;11.62;76.51
2178;BME280;1095;50.992;6.798;2023-04-28T00:39:53;100468.13;;;11.61;76.64
2178;BME280;1095;50.992;6.798;2023-04-28T00:42:21;100473.88;;;11.65;77.00
2178;BME280;1095;50.992;6.798;2023-04-28T00:44:48;100458.47;;;11.62;77.43
2178;BME280;1095;50.992;6.798;2023-04-28T00:47:18;100463.72;;;11.62;77.14
2178;BME280;1095;50.992;6.798;2023-04-28T00:49:45;100462.25;;;11.59;77.01
2178;BME280;1095;50.992;6.798;2023-04-28T00:52:14;100463.88;;;11.60;77.02
2178;BME280;1095;50.992;6.798;2023-04-28T00:54:40;100464.19;;;11.66;77.26
2178;BME280;1095;50.992;6.798;2023-04-28T00:57:08;100466.50;;;11.60;77.41
2178;BME280;1095;50.992;6.798;2023-04-28T00:59:36;100463.56;;;11.63;78.02
2178;BME280;1095;50.992;6.798;2023-04-28T01:02:04;100469.94;;;11.69;78.44
2178;BME280;1095;50.992;6.798;2023-04-28T01:04:32;100469.44;;;11.74;78.55
2178;BME280;1095;50.992;6.798;2023-04-28T01:06:59;100460.94;;;11.55;79.37
2178;BME280;1095;50.992;6.798;2023-04-28T01:09:26;100468.47;;;11.58;80.11
2178;BME280;1095;50.992;6.798;2023-04-28T01:11:52;100461.59;;;11.49;80.81
2178;BME280;1095;50.992;6.798;2023-04-28T01:14:19;100466.69;;;11.35;81.92
2178;BME280;1095;50.992;6.798;2023-04-28T01:16:48;100457.66;;;11.45;83.12
2178;BME280;1095;50.992;6.798;2023-04-28T01:19:18;100455.53;;;11.41;83.72
2178;BME280;1095;50.992;6.798;2023-04-28T01:21:45;100458.03;;;11.34;84.40
2178;BME280;1095;50.992;6.798;2023-04-28T01:24:13;100455.75;;;11.31;84.52
2178;BME280;1095;50.992;6.798;2023-04-28T01:26:40;100448.88;;;11.22;84.55
2178;BME280;1095;50.992;6.798;2023-04-28T01:29:07;100459.66;;;11.19;84.95
2178;BME280;1095;50.992;6.798;2023-04-28T01:31:33;100451.66;;;11.28;85.53
2178;BME280;1095;50.992;6.798;2023-04-28T01:34:00;100447.88;;;11.15;85.44
2178;BME280;1095;50.992;6.798;2023-04-28T01:36:27;100447.22;;;11.13;85.99
2178;BME280;1095;50.992;6.798;2023-04-28T01:38:54;100440.34;;;11.12;86.41
2178;BME280;1095;50.992;6.798;2023-04-28T01:41:22;100448.53;;;11.01;86.64
2178;BME280;1095;50.992;6.798;2023-04-28T01:43:48;100442.47;;;11.08;86.91
2178;BME280;1095;50.992;6.798;2023-04-28T01:46:15;100449.84;;;11.21;87.50
2178;BME280;1095;50.992;6.798;2023-04-28T01:48:41;100447.56;;;11.18;87.34
2178;BME280;1095;50.992;6.798;2023-04-28T01:51:08;100447.22;;;11.13;87.36
2178;BME280;1095;50.992;6.798;2023-04-28T01:53:35;100455.06;;;11.05;87.71
2178;BME280;1095;50.992;6.798;2023-04-28T01:56:01;100462.44;;;11.17;89.13
2178;BME280;1095;50.992;6.798;2023-04-28T01:58:29;100463.75;;;11.13;89.29
2178;BME280;1095;50.992;6.798;2023-04-28T02:00:56;100454.09;;;11.14;89.91
2178;BME280;1095;50.992;6.798;2023-04-28T02:03:23;100457.03;;;11.03;89.59
2178;BME280;1095;50.992;6.798;2023-04-28T02:05:50;100460.31;;;11.05;90.38
2178;BME280;1095;50.992;6.798;2023-04-28T02:08:16;100452.13;;;11.00;89.90
2178;BME280;1095;50.992;6.798;2023-04-28T02:10:43;100444.91;;;10.93;90.54
2178;BME280;1095;50.992;6.798;2023-04-28T02:13:10;100455.56;;;10.84;90.98
2178;BME280;1095;50.992;6.798;2023-04-28T02:15:39;100468.34;;;10.87;91.37
2178;BME280;1095;50.992;6.798;2023-04-28T02:18:06;100470.44;;;10.91;91.55
2178;BME280;1095;50.992;6.798;2023-04-28T02:20:33;100453.63;;;10.86;91.93
2178;BME280;1095;50.992;6.798;2023-04-28T02:22:59;100444.59;;;10.80;92.18
2178;BME280;1095;50.992;6.798;2023-04-28T02:25:26;100439.22;;;10.82;93.15
2178;BME280;1095;50.992;6.798;2023-04-28T02:27:53;100433.81;;;10.75;93.36
2178;BME280;1095;50.992;6.798;2023-04-28T02:30:19;100425.63;;;10.70;93.91
2178;BME280;1095;50.992;6.798;2023-04-28T02:32:48;100434.44;;;10.69;93.63
2178;BME280;1095;50.992;6.798;2023-04-28T02:35:15;100431.97;;;10.68;93.21
2178;BME280;1095;50.992;6.798;2023-04-28T02:37:41;100431.66;;;10.71;93.23
2178;BME280;1095;50.992;6.798;2023-04-28T02:40:08;100435.09;;;10.71;92.76
2178;BME280;1095;50.992;6.798;2023-04-28T02:42:35;100423.31;;;10.67;93.34
2178;BME280;1095;50.992;6.798;2023-04-28T02:45:02;100421.19;;;10.71;93.62
2178;BME280;1095;50.992;6.798;2023-04-28T02:47:29;100426.94;;;10.74;93.72
2178;BME280;1095;50.992;6.798;2023-04-28T02:49:57;100420.72;;;10.75;93.62
2178;BME280;1095;50.992;6.798;2023-04-28T02:52:23;100431.84;;;10.77;93.93
2178;BME280;1095;50.992;6.798;2023-04-28T02:54:50;100428.91;;;10.80;94.07
2178;BME280;1095;50.992;6.798;2023-04-28T02:57:19;100434.31;;;10.87;94.44
2178;BME280;1095;50.992;6.798;2023-04-28T02:59:45;100438.38;;;10.81;94.88
2178;BME280;1095;50.992;6.798;2023-04-28T03:02:12;100427.25;;;10.79;94.77
2178;BME280;1095;50.992;6.798;2023-04-28T03:04:39;100440.00;;;10.90;95.21
2178;BME280;1095;50.992;6.798;2023-04-28T03:07:07;100443.44;;;10.91;95.87
2178;BME280;1095;50.992;6.798;2023-04-28T03:09:33;100437.06;;;10.77;95.48
2178;BME280;1095;50.992;6.798;2023-04-28T03:12:00;100422.69;;;10.73;94.62
2178;BME280;1095;50.992;6.798;2023-04-28T03:14:27;100425.94;;;10.75;94.60
2178;BME280;1095;50.992;6.798;2023-04-28T03:16:54;100428.06;;;10.72;94.01
2178;BME280;1095;50.992;6.798;2023-04-28T03:19:22;100411.38;;;10.64;94.39
2178;BME280;1095;50.992;6.798;2023-04-28T03:21:48;100409.91;;;10.62;94.49
2178;BME280;1095;50.992;6.798;2023-04-28T03:24:16;100415.44;;;10.59;94.76
2178;BME280;1095;50.992;6.798;2023-04-28T03:26:43;100420.19;;;10.55;95.18
2178;BME280;1095;50.992;6.798;2023-04-28T03:29:09;100431.78;;;10.53;95.48
2178;BME280;1095;50.992;6.798;2023-04-28T03:31:36;100422.63;;;10.49;95.78
2178;BME280;1095;50.992;6.798;2023-04-28T03:34:03;100426.22;;;10.48;96.55
2178;BME280;1095;50.992;6.798;2023-04-28T03:36:30;100405.78;;;10.51;97.54
2178;BME280;1095;50.992;6.798;2023-04-28T03:38:57;100406.91;;;10.49;98.24
2178;BME280;1095;50.992;6.798;2023-04-28T03:41:25;100402.00;;;10.46;98.61
2178;BME280;1095;50.992;6.798;2023-04-28T03:43:51;100403.31;;;10.34;99.30
2178;BME280;1095;50.992;6.798;2023-04-28T03:46:21;100395.09;;;10.20;99.99
2178;BME280;1095;50.992;6.798;2023-04-28T03:48:48;100383.25;;;10.08;100.00
2178;BME280;1095;50.992;6.798;2023-04-28T03:51:14;100375.38;;;10.00;100.00
2178;BME280;1095;50.992;6.798;2023-04-28T03:53:41;100372.44;;;9.95;100.00
2178;BME280;1095;50.992;6.798;2023-04-28T03:56:08;100352.03;;;9.90;100.00
2178;BME280;1095;50.992;6.798;2023-04-28T03:58:36;100343.38;;;9.90;100.00
2178;BME280;1095;50.992;6.798;2023-04-28T04:01:02;100344.19;;;9.90;100.00
2178;BME280;1095;50.992;6.798;2023-04-28T04:03:30;100342.31;;;9.75;100.00
2178;BME280;1095;50.992;6.798;2023-04-28T04:05:57;100335.75;;;9.71;100.00
2178;BME280;1095;50.992;6.798;2023-04-28T04:08:24;100345.91;;;9.74;100.00
2178;BME280;1095;50.992;6.798;2023-04-28T04:10:51;100345.03;;;9.65;100.00
2178;BME280;1095;50.992;6.798;2023-04-28T04:13:19;100338.03;;;9.65;100.00
2178;BME280;1095;50.992;6.798;2023-04-28T04:15:47;100329.19;;;9.58;100.00
2178;BME280;1095;50.992;6.798;2023-04-28T04:18:14;100336.19;;;9.58;100.00
2178;BME280;1095;50.992;6.798;2023-04-28T04:20:41;100333.44;;;9.59;100.00
2178;BME280;1095;50.992;6.798;2023-04-28T04:23:07;100343.56;;;9.62;100.00
2178;BME280;1095;50.992;6.798;2023-04-28T04:25:34;100326.91;;;9.63;100.00
2178;BME280;1095;50.992;6.798;2023-04-28T04:28:01;100332.66;;;9.67;100.00
2178;BME280;1095;50.992;6.798;2023-04-28T04:30:27;100334.59;;;9.65;100.00
2178;BME280;1095;50.992;6.798;2023-04-28T04:32:55;100336.91;;;9.68;100.00
2178;BME280;1095;50.992;6.798;2023-04-28T04:35:22;100337.56;;;9.70;100.00
2178;BME280;1095;50.992;6.798;2023-04-28T04:37:49;100322.69;;;9.71;100.00
2178;BME280;1095;50.992;6.798;2023-04-28T04:40:15;100323.72;;;9.78;100.00
2178;BME280;1095;50.992;6.798;2023-04-28T04:42:42;100336.44;;;9.73;100.00
2178;BME280;1095;50.992;6.798;2023-04-28T04:45:09;100325.66;;;9.76;100.00
2178;BME280;1095;50.992;6.798;2023-04-28T04:47:36;100341.84;;;9.79;100.00
2178;BME280;1095;50.992;6.798;2023-04-28T04:50:05;100329.09;;;9.76;100.00
2178;BME280;1095;50.992;6.798;2023-04-28T04:52:32;100328.94;;;9.78;100.00
2178;BME280;1095;50.992;6.798;2023-04-28T04:54:59;100330.72;;;9.77;100.00
2178;BME280;1095;50.992;6.798;2023-04-28T04:57:25;100337.75;;;9.77;100.00
2178;BME280;1095;50.992;6.798;2023-04-28T04:59:52;100334.16;;;9.78;100.00
2178;BME280;1095;50.992;6.798;2023-04-28T05:02:18;100351.78;;;9.76;100.00
2178;BME280;1095;50.992;6.798;2023-04-28T05:04:45;100345.59;;;9.77;100.00
2178;BME280;1095;50.992;6.798;2023-04-28T05:07:13;100345.94;;;9.82;100.00
2178;BME280;1095;50.992;6.798;2023-04-28T05:09:40;100344.31;;;9.81;100.00
2178;BME280;1095;50.992;6.798;2023-04-28T05:12:07;100344.50;;;9.87;100.00
2178;BME280;1095;50.992;6.798;2023-04-28T05:14:34;100326.84;;;9.81;100.00
2178;BME280;1095;50.992;6.798;2023-04-28T05:17:00;100330.94;;;9.84;100.00
2178;BME280;1095;50.992;6.798;2023-04-28T05:19:27;100324.41;;;9.88;100.00
2178;BME280;1095;50.992;6.798;2023-04-28T05:21:53;100330.94;;;9.92;100.00
2178;BME280;1095;50.992;6.798;2023-04-28T05:24:21;100321.13;;;9.94;100.00
2178;BME280;1095;50.992;6.798;2023-04-28T05:26:49;100320.00;;;9.96;100.00
2178;BME280;1095;50.992;6.798;2023-04-28T05:29:15;100330.31;;;10.06;100.00
2178;BME280;1095;50.992;6.798;2023-04-28T05:31:42;100330.97;;;10.08;100.00
2178;BME280;1095;50.992;6.798;2023-04-28T05:34:09;100332.28;;;10.12;100.00
2178;BME280;1095;50.992;6.798;2023-04-28T05:36:35;100332.78;;;10.16;100.00
2178;BME280;1095;50.992;6.798;2023-04-28T05:39:03;100328.69;;;10.13;100.00
2178;BME280;1095;50.992;6.798;2023-04-28T05:41:30;100324.78;;;10.17;100.00
2178;BME280;1095;50.992;6.798;2023-04-28T05:43:57;100329.69;;;10.12;100.00
2178;BME280;1095;50.992;6.798;2023-04-28T05:46:29;100312.19;;;10.05;100.00
2178;BME280;1095;50.992;6.798;2023-04-28T05:48:56;100311.69;;;10.09;100.00
2178;BME280;1095;50.992;6.798;2023-04-28T05:51:23;100324.78;;;10.17;100.00
2178;BME280;1095;50.992;6.798;2023-04-28T05:53:55;100316.66;;;10.28;100.00
2178;BME280;1095;50.992;6.798;2023-04-28T05:56:22;100322.91;;;10.36;100.00
2178;BME280;1095;50.992;6.798;2023-04-28T05:58:50;100318.00;;;10.33;100.00
2178;BME280;1095;50.992;6.798;2023-04-28T06:01:17;100314.72;;;10.39;100.00
2178;BME280;1095;50.992;6.798;2023-04-28T06:03:44;100320.59;;;10.41;100.00
2178;BME280;1095;50.992;6.798;2023-04-28T06:06:11;100321.59;;;10.40;100.00
2178;BME280;1095;50.992;6.798;2023-04-28T06:08:38;100313.09;;;10.29;100.00
2178;BME280;1095;50.992;6.798;2023-04-28T06:11:07;100316.34;;;10.32;100.00
2178;BME280;1095;50.992;6.798;2023-04-28T06:13:34;100316.84;;;10.35;100.00
2178;BME280;1095;50.992;6.798;2023-04-28T06:16:03;100315.53;;;10.31;100.00
2178;BME280;1095;50.992;6.798;2023-04-28T06:18:29;100319.13;;;10.30;100.00
2178;BME280;1095;50.992;6.798;2023-04-28T06:20:57;100321.41;;;10.25;100.00
2178;BME280;1095;50.992;6.798;2023-04-28T06:23:23;100337.44;;;10.30;100.00
2178;BME280;1095;50.992;6.798;2023-04-28T06:25:50;100321.25;;;10.35;100.00
2178;BME280;1095;50.992;6.798;2023-04-28T06:28:17;100327.63;;;10.32;100.00
2178;BME280;1095;50.992;6.798;2023-04-28T06:30:44;100327.16;;;10.37;100.00
2178;BME280;1095;50.992;6.798;2023-04-28T06:33:12;100327.16;;;10.61;100.00
2178;BME280;1095;50.992;6.798;2023-04-28T06:35:41;100338.28;;;10.71;100.00
2178;BME280;1095;50.992;6.798;2023-04-28T06:38:08;100347.56;;;10.90;100.00
2178;BME280;1095;50.992;6.798;2023-04-28T06:40:35;100334.31;;;10.91;100.00
2178;BME280;1095;50.992;6.798;2023-04-28T06:43:02;100334.63;;;10.96;100.00
2178;BME280;1095;50.992;6.798;2023-04-28T06:45:29;100329.41;;;10.88;100.00
2178;BME280;1095;50.992;6.798;2023-04-28T06:47:56;100327.78;;;10.95;100.00
2178;BME280;1095;50.992;6.798;2023-04-28T06:50:24;100324.00;;;10.98;100.00
2178;BME280;1095;50.992;6.798;2023-04-28T06:52:51;100322.34;;;11.13;99.98
2178;BME280;1095;50.992;6.798;2023-04-28T06:55:17;100320.88;;;11.19;99.95
2178;BME280;1095;50.992;6.798;2023-04-28T06:57:44;100332.91;;;11.44;99.41
2178;BME280;1095;50.992;6.798;2023-04-28T07:00:12;100341.69;;;11.59;99.27
2178;BME280;1095;50.992;6.798;2023-04-28T07:02:39;100325.22;;;11.35;98.88
2178;BME280;1095;50.992;6.798;2023-04-28T07:05:06;100324.78;;;11.23;99.31
2178;BME280;1095;50.992;6.798;2023-04-28T07:07:35;100334.91;;;11.34;99.92
2178;BME280;1095;50.992;6.798;2023-04-28T07:10:04;100334.91;;;11.34;99.95
2178;BME280;1095;50.992;6.798;2023-04-28T07:12:31;100337.72;;;11.24;99.60
2178;BME280;1095;50.992;6.798;2023-04-28T07:14:57;100335.25;;;11.31;99.84
2178;BME280;1095;50.992;6.798;2023-04-28T07:17:24;100339.84;;;11.29;99.05
2178;BME280;1095;50.992;6.798;2023-04-28T07:19:50;100342.81;;;11.10;99.65
2178;BME280;1095;50.992;6.798;2023-04-28T07:22:17;100351.66;;;11.17;99.50
2178;BME280;1095;50.992;6.798;2023-04-28T07:24:45;100343.94;;;11.32;99.79
2178;BME280;1095;50.992;6.798;2023-04-28T07:27:11;100348.50;;;11.29;99.99
2178;BME280;1095;50.992;6.798;2023-04-28T07:29:38;100342.78;;;11.26;100.00
2178;BME280;1095;50.992;6.798;2023-04-28T07:32:05;100346.00;;;11.44;99.67
2178;BME280;1095;50.992;6.798;2023-04-28T07:34:33;100350.13;;;11.86;98.63
2178;BME280;1095;50.992;6.798;2023-04-28T07:37:00;100339.22;;;12.05;98.03
2178;BME280;1095;50.992;6.798;2023-04-28T07:39:27;100333.47;;;11.79;97.15
2178;BME280;1095;50.992;6.798;2023-04-28T07:41:55;100339.53;;;11.79;97.11
2178;BME280;1095;50.992;6.798;2023-04-28T07:44:22;100348.53;;;11.69;97.12
2178;BME280;1095;50.992;6.798;2023-04-28T07:46:48;100345.63;;;11.63;97.35
2178;BME280;1095;50.992;6.798;2023-04-28T07:49:15;100335.03;;;11.88;97.24
2178;BME280;1095;50.992;6.798;2023-04-28T07:51:42;100326.84;;;12.22;96.60
2178;BME280;1095;50.992;6.798;2023-04-28T07:54:08;100329.00;;;12.79;95.89
2178;BME280;1095;50.992;6.798;2023-04-28T07:56:35;100334.13;;;13.10;93.86
2178;BME280;1095;50.992;6.798;2023-04-28T07:59:03;100336.41;;;13.13;92.24
2178;BME280;1095;50.992;6.798;2023-04-28T08:01:30;100332.28;;;13.48;91.16
2178;BME280;1095;50.992;6.798;2023-04-28T08:03:56;100319.06;;;13.92;89.08
2178;BME280;1095;50.992;6.798;2023-04-28T08:06:23;100321.31;;;13.95;88.23
2178;BME280;1095;50.992;6.798;2023-04-28T08:08:59;100311.97;;;14.07;87.54
2178;BME280;1095;50.992;6.798;2023-04-28T08:11:26;100304.84;;;13.86;86.78
2178;BME280;1095;50.992;6.798;2023-04-28T08:13:53;100308.13;;;13.74;87.51
2178;BME280;1095;50.992;6.798;2023-04-28T08:16:22;100321.03;;;13.54;88.04
2178;BME280;1095;50.992;6.798;2023-04-28T08:18:49;100320.03;;;13.40;88.96
2178;BME280;1095;50.992;6.798;2023-04-28T08:21:15;100318.78;;;13.36;90.35
2178;BME280;1095;50.992;6.798;2023-04-28T08:23:42;100322.66;;;13.40;90.65
2178;BME280;1095;50.992;6.798;2023-04-28T08:26:08;100325.25;;;13.84;91.67
2178;BME280;1095;50.992;6.798;2023-04-28T08:28:35;100305.91;;;13.56;90.89
2178;BME280;1095;50.992;6.798;2023-04-28T08:31:02;100313.47;;;13.80;90.26
2178;BME280;1095;50.992;6.798;2023-04-28T08:33:31;100325.63;;;14.39;90.06
2178;BME280;1095;50.992;6.798;2023-04-28T08:35:57;100315.72;;;14.41;88.17
2178;BME280;1095;50.992;6.798;2023-04-28T08:38:24;100321.25;;;13.88;88.47
2178;BME280;1095;50.992;6.798;2023-04-28T08:40:51;100328.00;;;13.61;89.79
2178;BME280;1095;50.992;6.798;2023-04-28T08:43:18;100334.31;;;13.82;91.03
2178;BME280;1095;50.992;6.798;2023-04-28T08:45:45;100334.00;;;14.06;90.71
2178;BME280;1095;50.992;6.798;2023-04-28T08:48:16;100334.25;;;14.11;90.67
2178;BME280;1095;50.992;6.798;2023-04-28T08:50:48;100329.50;;;13.85;91.12
2178;BME280;1095;50.992;6.798;2023-04-28T08:53:23;100336.72;;;13.62;92.24
2178;BME280;1095;50.992;6.798;2023-04-28T08:55:54;100338.38;;;13.99;93.70
2178;BME280;1095;50.992;6.798;2023-04-28T08:58:22;100347.78;;;14.08;94.61
2178;BME280;1095;50.992;6.798;2023-04-28T09:00:49;100350.25;;;13.95;95.20
2178;BME280;1095;50.992;6.798;2023-04-28T09:03:16;100353.25;;;13.92;96.32
2178;BME280;1095;50.992;6.798;2023-04-28T09:05:43;100360.28;;;13.70;97.53
2178;BME280;1095;50.992;6.798;2023-04-28T09:08:11;100353.31;;;13.63;99.35
2178;BME280;1095;50.992;6.798;2023-04-28T09:10:37;100352.00;;;13.14;100.00
2178;BME280;1095;50.992;6.798;2023-04-28T09:13:04;100354.81;;;13.13;100.00
2178;BME280;1095;50.992;6.798;2023-04-28T09:15:35;100350.84;;;13.17;100.00
2178;BME280;1095;50.992;6.798;2023-04-28T09:18:02;100341.66;;;13.13;100.00
2178;BME280;1095;50.992;6.798;2023-04-28T09:20:30;100344.69;;;12.87;100.00
2178;BME280;1095;50.992;6.798;2023-04-28T09:23:14;100351.56;;;12.88;100.00
2178;BME280;1095;50.992;6.798;2023-04-28T09:25:55;100351.81;;;12.78;100.00
2178;BME280;1095;50.992;6.798;2023-04-28T09:28:22;100347.19;;;12.80;100.00
2178;BME280;1095;50.992;6.798;2023-04-28T09:30:49;100359.78;;;13.08;100.00
2178;BME280;1095;50.992;6.798;2023-04-28T09:33:16;100357.78;;;13.10;100.00
2178;BME280;1095;50.992;6.798;2023-04-28T09:35:43;100365.44;;;13.19;100.00
2178;BME280;1095;50.992;6.798;2023-04-28T09:38:13;100362.69;;;13.13;100.00
2178;BME280;1095;50.992;6.798;2023-04-28T09:40:50;100364.63;;;13.19;100.00
2178;BME280;1095;50.992;6.798;2023-04-28T09:43:22;100359.91;;;13.29;100.00
2178;BME280;1095;50.992;6.798;2023-04-28T09:45:49;100360.69;;;13.15;100.00
2178;BME280;1095;50.992;6.798;2023-04-28T09:48:16;100369.69;;;13.35;100.00
2178;BME280;1095;50.992;6.798;2023-04-28T09:50:43;100366.25;;;13.20;100.00
2178;BME280;1095;50.992;6.798;2023-04-28T09:53:10;100365.44;;;13.34;100.00
2178;BME280;1095;50.992;6.798;2023-04-28T09:55:43;100368.44;;;13.60;100.00
2178;BME280;1095;50.992;6.798;2023-04-28T09:58:12;100361.19;;;13.63;100.00
2178;BME280;1095;50.992;6.798;2023-04-28T10:00:40;100361.91;;;13.56;100.00
2178;BME280;1095;50.992;6.798;2023-04-28T10:03:08;100364.19;;;13.45;100.00
2178;BME280;1095;50.992;6.798;2023-04-28T10:05:36;100368.53;;;13.67;100.00
2178;BME280;1095;50.992;6.798;2023-04-28T10:08:04;100362.72;;;13.57;100.00
2178;BME280;1095;50.992;6.798;2023-04-28T10:10:31;100356.97;;;13.83;100.00
2178;BME280;1095;50.992;6.798;2023-04-28T10:12:59;100362.41;;;13.96;100.00
2178;BME280;1095;50.992;6.798;2023-04-28T10:15:27;100350.81;;;13.90;100.00
2178;BME280;1095;50.992;6.798;2023-04-28T10:17:54;100353.75;;;14.17;100.00
2178;BME280;1095;50.992;6.798;2023-04-28T10:20:21;100342.88;;;13.69;100.00
2178;BME280;1095;50.992;6.798;2023-04-28T10:22:57;100343.66;;;13.84;100.00
2178;BME280;1095;50.992;6.798;2023-04-28T10:25:27;100346.72;;;13.88;100.00
2178;BME280;1095;50.992;6.798;2023-04-28T10:27:56;100346.91;;;13.86;100.00
2178;BME280;1095;50.992;6.798;2023-04-28T10:30:26;100341.22;;;13.83;100.00
2178;BME280;1095;50.992;6.798;2023-04-28T10:33:21;100348.78;;;14.07;100.00
2178;BME280;1095;50.992;6.798;2023-04-28T10:35:50;100353.81;;;14.23;100.00
2178;BME280;1095;50.992;6.798;2023-04-28T10:38:18;100348.31;;;14.40;100.00
2178;BME280;1095;50.992;6.798;2023-04-28T10:40:46;100343.41;;;14.51;100.00
2178;BME280;1095;50.992;6.798;2023-04-28T10:43:14;100348.53;;;14.59;100.00
2178;BME280;1095;50.992;6.798;2023-04-28T10:46:05;100345.44;;;14.77;100.00
2178;BME280;1095;50.992;6.798;2023-04-28T10:48:54;100337.19;;;15.15;100.00
2178;BME280;1095;50.992;6.798;2023-04-28T10:51:30;100345.28;;;15.41;100.00
2178;BME280;1095;50.992;6.798;2023-04-28T10:54:13;100333.91;;;15.75;100.00
2178;BME280;1095;50.992;6.798;2023-04-28T10:57:15;100341.13;;;16.14;100.00
2178;BME280;1095;50.992;6.798;2023-04-28T10:59:46;100333.81;;;16.10;100.00
2178;BME280;1095;50.992;6.798;2023-04-28T11:02:36;100333.88;;;16.30;100.00
2178;BME280;1095;50.992;6.798;2023-04-28T11:05:14;100329.81;;;16.60;99.84
2178;BME280;1095;50.992;6.798;2023-04-28T11:11:23;100322.28;;;17.30;96.18
2178;BME280;1095;50.992;6.798;2023-04-28T11:13:51;100315.34;;;17.42;95.30
2178;BME280;1095;50.992;6.798;2023-04-28T11:16:23;100314.47;;;17.54;95.39
2178;BME280;1095;50.992;6.798;2023-04-28T11:18:56;100317.09;;;17.54;95.25
2178;BME280;1095;50.992;6.798;2023-04-28T11:21:24;100321.38;;;17.69;95.30
2178;BME280;1095;50.992;6.798;2023-04-28T11:23:52;100308.16;;;17.55;94.48
2178;BME280;1095;50.992;6.798;2023-04-28T11:26:19;100315.31;;;17.48;95.32
2178;BME280;1095;50.992;6.798;2023-04-28T11:28:52;100311.25;;;17.46;94.36
2178;BME280;1095;50.992;6.798;2023-04-28T11:31:21;100316.69;;;17.57;94.68
2178;BME280;1095;50.992;6.798;2023-04-28T11:33:53;100312.91;;;17.40;94.77
2178;BME280;1095;50.992;6.798;2023-04-28T11:36:30;100310.84;;;17.42;94.93
2178;BME280;1095;50.992;6.798;2023-04-28T11:38:59;100312.50;;;17.43;94.12
2178;BME280;1095;50.992;6.798;2023-04-28T11:41:26;100308.28;;;17.80;94.69
2178;BME280;1095;50.992;6.798;2023-04-28T11:43:53;100309.31;;;18.17;93.65
2178;BME280;1095;50.992;6.798;2023-04-28T11:46:21;100315.75;;;18.28;93.75
2178;BME280;1095;50.992;6.798;2023-04-28T11:48:48;100305.13;;;18.35;92.37
2178;BME280;1095;50.992;6.798;2023-04-28T11:51:34;100311.50;;;18.83;91.74
2178;BME280;1095;50.992;6.798;2023-04-28T11:54:03;100305.44;;;19.56;90.59
2178;BME280;1095;50.992;6.798;2023-04-28T11:56:36;100306.09;;;19.70;88.25
2178;BME280;1095;50.992;6.798;2023-04-28T11:59:04;100284.47;;;19.48;87.07
2178;BME280;1095;50.992;6.798;2023-04-28T12:01:32;100295.50;;;19.51;87.38
2178;BME280;1095;50.992;6.798;2023-04-28T12:04:01;100284.28;;;19.68;86.92
2178;BME280;1095;50.992;6.798;2023-04-28T12:06:28;100280.75;;;19.55;86.00
2178;BME280;1095;50.992;6.798;2023-04-28T12:08:56;100283.03;;;19.70;86.94
2178;BME280;1095;50.992;6.798;2023-04-28T12:11:28;100279.25;;;19.41;86.63
2178;BME280;1095;50.992;6.798;2023-04-28T12:14:05;100287.38;;;19.28;87.55
2178;BME280;1095;50.992;6.798;2023-04-28T12:16:36;100281.13;;;19.22;87.58
2178;BME280;1095;50.992;6.798;2023-04-28T12:19:04;100276.47;;;19.18;87.31
2178;BME280;1095;50.992;6.798;2023-04-28T12:21:34;100283.09;;;19.27;87.01
2178;BME280;1095;50.992;6.798;2023-04-28T12:24:12;100276.69;;;19.53;85.93
2178;BME280;1095;50.992;6.798;2023-04-28T12:26:39;100273.78;;;19.00;85.77
2178;BME280;1095;50.992;6.798;2023-04-28T12:29:06;100268.84;;;19.40;85.68
2178;BME280;1095;50.992;6.798;2023-04-28T12:31:46;100269.25;;;19.62;84.84
2178;BME280;1095;50.992;6.798;2023-04-28T12:34:13;100261.56;;;19.72;83.90
2178;BME280;1095;50.992;6.798;2023-04-28T12:36:40;100264.22;;;19.53;84.38
2178;BME280;1095;50.992;6.798;2023-04-28T12:39:13;100254.78;;;20.17;83.92
2178;BME280;1095;50.992;6.798;2023-04-28T12:41:43;100244.81;;;20.13;82.75
2178;BME280;1095;50.992;6.798;2023-04-28T12:44:09;100259.16;;;20.12;83.18
2178;BME280;1095;50.992;6.798;2023-04-28T12:46:36;100253.22;;;19.98;82.83
2178;BME280;1095;50.992;6.798;2023-04-28T12:49:03;100252.84;;;19.83;83.52
2178;BME280;1095;50.992;6.798;2023-04-28T12:51:30;100243.50;;;19.92;82.91
2178;BME280;1095;50.992;6.798;2023-04-28T12:53:56;100248.28;;;20.13;82.37
2178;BME280;1095;50.992;6.798;2023-04-28T12:56:24;100236.00;;;20.01;81.86
2178;BME280;1095;50.992;6.798;2023-04-28T12:58:52;100246.47;;;19.54;82.03
2178;BME280;1095;50.992;6.798;2023-04-28T13:01:18;100233.56;;;19.03;83.47
2178;BME280;1095;50.992;6.798;2023-04-28T13:03:45;100256.84;;;19.01;85.88
2178;BME280;1095;50.992;6.798;2023-04-28T13:06:12;100262.88;;;18.71;90.31
2178;BME280;1095;50.992;6.798;2023-04-28T13:08:40;100270.84;;;18.40;93.89
2178;BME280;1095;50.992;6.798;2023-04-28T13:11:07;100276.06;;;18.46;96.43
2178;BME280;1095;50.992;6.798;2023-04-28T13:13:36;100272.53;;;18.84;95.04
2178;BME280;1095;50.992;6.798;2023-04-28T13:16:03;100264.38;;;19.22;96.26